Participated 2 times
Between 1993 and 1994
Gerd Audehm, Germany
Tour de France 2026 starts from Barcelona, Spain in

Stats and Facts from
Tour de France.

2026   2025   2024   2023  2022  2021  2020  2019   2018  2017   2016   2015  2014  2013   2012   2011  2010   2009   2008   2007   2006   2005   2004   2003   2002   2001   2000   1999   1998   1997  1996   1995   1994   1993   1992  1991   1990   1989   1988   1987   1986   1985   1984   1983  1982  1981   1980   1979  1978  1977   1976  1975  1974  1973   1972   1971   1970  1969   1968   1967   1966   1965  1964  1963   1962   1961   1960   1959   1958   1957  1956   1955   1954   1953   1952  1951  1950  1949   1948  1947  1939   1938   1937   1936   1935   1934   1933  1932   1931   1930  1929   1928   1927   1926  1925  1924  1923   1922   1921   1920   1919  1914   1913   1912   1911   1910  1909   1908   1907   1906  1905  1904   1903 

Tourstats
Sitemap

After stage 21 - 2025:
 16451 starters.
  5464 different riders.
  689 teams.
  2398 stages.
  470 restdays.
  466506.50 km.
  5925 abandoned riders.

Click map for 1952 route.
Facts from Tour de France 1952 Additional info and images from 1952.
  |   Stages.  |   Stage winners.  |   Days in jerseys.  |   Teams.  |   All riders.  |   All riders by age.  |   All riders from.  |  

  |   Rookies.  |   Withdrawls.  |   Average speed.  |   GC.  |   Polka  |   Green  |   White  |   Summits. (In tour)  |   Miscellaneous.  |  

Stage 5 on June 29th. 1952
Pick a stage:  1  2  3  4  5  6  7  8  9  10  11  12  13  14  15  16  17  18  19  20  21  22  23  

After stage 5:    Nello Lauredi  
  RoubaixNamur | Dist: 197.00km. | Winner: Jean Diederich

Podium

Average speed for all riders in stage:  31,637 km./hr.

1
 Jean Diederich  Luxembourg05h 54' 28"=33,346  km/h

2
 Fausto Coppi  Italy05h 59' 29"+  00:05:01 =32,881  km/h

3
 Robert Vanderstockt  Belgium06h 00' 11"+  00:05:43 =32,817  km/h

4  Gino Bartali  Italy06h 01' 44"+  00:07:16 =32,676  km/h

5  Fiorenzo Magni  Italy06h 01' 50"+  00:07:22 =32,667  km/h

6  Jean Goldschmit  Luxembourg06h 01' 58"+  00:07:30 =32,655  km/h

7  Stan Ockers  Belgium06h 02' 56"+  00:08:28 =32,568  km/h

8  Rene Rotta  Sud Est06h 03' 38"+  00:09:10 =32,505  km/h

9  Gottfried Weilenmann  Switzerland06h 03' 50"+  00:09:22 =32,487  km/h

10  Gerrit Voorting  Holland06h 03' 50"+  00:09:22 =32,487  km/h

11  Jean Robic  France06h 03' 50"+  00:09:22 =32,487  km/h

12  Alexandre Close  Belgium06h 03' 50"+  00:09:22 =32,487  km/h

13  Adolphe Deledda  Nord Est-Centre06h 03' 50"+  00:09:22 =32,487  km/h

14  Nello Lauredi  France06h 03' 50"+  00:09:22 =32,487  km/h

15  Wim van Est  Holland06h 03' 50"+  00:09:22 =32,487  km/h

16  Thijs Roks  Holland06h 03' 59"+  00:09:31 =32,474  km/h

17  Alois De Hertog  Belgium06h 03' 59"+  00:09:31 =32,474  km/h

18  Bernardo Ruíz  Spain06h 03' 59"+  00:09:31 =32,474  km/h

19  Vincent Vitetta  Sud Est06h 04' 17"+  00:09:49 =32,447  km/h

20  Marcel Dussault  Nord Est-Centre06h 04' 17"+  00:09:49 =32,447  km/h

21  Mario Baroni  Italy06h 04' 22"+  00:09:54 =32,440  km/h

22  Eugène Telotte  Paris06h 04' 43"+  00:10:15 =32,409  km/h

23  Marcel Zelasco  North Africa06h 05' 40"+  00:11:12 =32,325  km/h

24  Jean-Baptiste Dotto  France06h 06' 13"+  00:11:45 =32,276  km/h

25  Maurice Neyt  Belgium06h 06' 13"+  00:11:45 =32,276  km/h

26  Jacques Marinelli  Paris06h 06' 13"+  00:11:45 =32,276  km/h

27  Andrea Carrea  Italy06h 06' 13"+  00:11:45 =32,276  km/h

28  José Serra Gil  Spain06h 07' 01"+  00:12:33 =32,206  km/h

29  Michel Llorca  Sud Est06h 07' 05"+  00:12:37 =32,200  km/h

30  Robert Bintz  Luxembourg06h 07' 20"+  00:12:52 =32,178  km/h

31  Marcel Huber  Switzerland06h 07' 20"+  00:12:52 =32,178  km/h

32  Georges Meunier  Nord Est-Centre06h 07' 24"+  00:12:56 =32,172  km/h

33  Willy Kemp  Luxembourg06h 07' 24"+  00:12:56 =32,172  km/h

34  Luciano Pezzi  Italy06h 07' 24"+  00:12:56 =32,172  km/h

35  Ettore Milano  Italy06h 07' 24"+  00:12:56 =32,172  km/h

36  Eduard Van Ende  Belgium06h 07' 34"+  00:13:06 =32,157  km/h

37  Martin Metzger  Switzerland06h 09' 09"+  00:14:41 =32,020  km/h

38  Siro Bianchi  Sud Est06h 09' 48"+  00:15:20 =31,963  km/h

39  Johny Goedert  Luxembourg06h 10' 17"+  00:15:49 =31,922  km/h

40  José Pérez  Spain06h 10' 17"+  00:15:49 =31,922  km/h

41  Antonin Rolland  France06h 10' 52"+  00:16:24 =31,871  km/h

42  Raphaël Geminiani  France06h 10' 52"+  00:16:24 =31,871  km/h

43  Raoul Remy  France06h 10' 52"+  00:16:24 =31,871  km/h

44  Giovanni Corrieri  Italy06h 10' 52"+  00:16:24 =31,871  km/h

45  Franco Franchi  Italy06h 10' 52"+  00:16:24 =31,871  km/h

46  Walter Diggelmann  Switzerland06h 10' 52"+  00:16:24 =31,871  km/h

47  José Gil Sole  Spain06h 10' 52"+  00:16:24 =31,871  km/h

48  Jacques Vivier  Ouest-Sud Ouest06h 10' 52"+  00:16:24 =31,871  km/h

49  Fiorenzo Crippa  Italy06h 10' 52"+  00:16:24 =31,871  km/h

50  Wout Wagtmans  Holland06h 11' 41"+  00:17:13 =31,801  km/h

51  Roger Rossinelli  Nord Est-Centre06h 11' 41"+  00:17:13 =31,801  km/h

52  Henri Van Kerckhove  Belgium06h 13' 20"+  00:18:52 =31,661  km/h

53  Guy Lapébie  Ouest-Sud Ouest06h 13' 20"+  00:18:52 =31,661  km/h

54  Lucien Lazarides  France06h 13' 43"+  00:19:15 =31,628  km/h

55  Jacques Renaud  Paris06h 14' 02"+  00:19:34 =31,601  km/h

56  Maurice Quentin  France06h 14' 02"+  00:19:34 =31,601  km/h

57  Marcel Fernandez  North Africa06h 14' 02"+  00:19:34 =31,601  km/h

58  Bernard Gauthier  France06h 14' 20"+  00:19:52 =31,576  km/h

58  Andrès Trobat  Spain06h 14' 20"+  00:19:52 =31,576  km/h

58  Giuseppe Mirando  Sud Est06h 14' 20"+  00:19:52 =31,576  km/h

58  Jean Le Guilly  Ouest-Sud Ouest06h 14' 20"+  00:19:52 =31,576  km/h

58  Antonio Gelabert  Spain06h 14' 20"+  00:19:52 =31,576  km/h

58  Jean-Marie Cieliczka  Nord Est-Centre06h 14' 20"+  00:19:52 =31,576  km/h

58  Pierre Molineris  Sud Est06h 14' 20"+  00:19:52 =31,576  km/h

58  Lucien Teisseire  France06h 14' 20"+  00:19:52 =31,576  km/h

58  Francisco Masip  Spain06h 14' 20"+  00:19:52 =31,576  km/h

58  Carlo Lafranchi  Switzerland06h 14' 20"+  00:19:52 =31,576  km/h

58  Heinrich Spuhler  Switzerland06h 14' 20"+  00:19:52 =31,576  km/h

58  Maurice Blomme  Belgium06h 14' 20"+  00:19:52 =31,576  km/h

58  Giulio Bresci  Italy06h 14' 20"+  00:19:52 =31,576  km/h

58  Alfredo Martini  Italy06h 14' 20"+  00:19:52 =31,576  km/h

58  Robert Bonnaventure  France06h 14' 20"+  00:19:52 =31,576  km/h

58  Hans Dekkers  Holland06h 14' 20"+  00:19:52 =31,576  km/h

58  Paul Giguet  Sud Est06h 14' 20"+  00:19:52 =31,576  km/h

75  Alain Moineau  Ouest-Sud Ouest06h 15' 03"+  00:20:35 =31,516  km/h

76  Noel Lajoie  Nord Est-Centre06h 15' 03"+  00:20:35 =31,516  km/h

77  Settimo Sabbadini  Ouest-Sud Ouest06h 15' 03"+  00:20:35 =31,516  km/h

78  Georges Decaux  Paris06h 15' 29"+  00:21:01 =31,479  km/h

79  Jan Nolten  Holland06h 16' 26"+  00:21:58 =31,400  km/h

80  Armand Papazian  Paris06h 22' 07"+  00:27:39 =30,933  km/h

81  Jacques Dupont  Paris06h 22' 07"+  00:27:39 =30,933  km/h

82  Hein Van Breenen  Holland06h 22' 45"+  00:28:17 =30,882  km/h

83  Jean Malléjac  Ouest-Sud Ouest06h 23' 01"+  00:28:33 =30,860  km/h

84  Jean Bertaina  Sud Est06h 23' 01"+  00:28:33 =30,860  km/h

85  Roger Decock  Belgium06h 23' 01"+  00:28:33 =30,860  km/h

86  André Rosseel  Belgium06h 24' 24"+  00:29:56 =30,749  km/h

87  Gino Sciardis  Paris06h 24' 49"+  00:30:21 =30,716  km/h

88  Adolphe Pezzuli  Sud Est06h 24' 49"+  00:30:21 =30,716  km/h

89  Jean Delahaye  Ouest-Sud Ouest06h 24' 49"+  00:30:21 =30,716  km/h

90  Henk Faanhof  Holland06h 25' 01"+  00:30:33 =30,700  km/h

91  Jean De Gribaldy  Nord Est-Centre06h 28' 27"+  00:33:59 =30,429  km/h

92  André Bernard  Ouest-Sud Ouest06h 28' 27"+  00:33:59 =30,429  km/h

93  Gilbert Bauvin  Nord Est-Centre06h 28' 53"+  00:34:25 =30,395  km/h

94  Ahmed Kebaïli  North Africa06h 28' 53"+  00:34:25 =30,395  km/h

95  Pierre Pardoën  Nord Est-Centre06h 28' 53"+  00:34:25 =30,395  km/h

96  René Berton  Ouest-Sud Ouest06h 30' 05"+  00:35:37 =30,301  km/h

97  Dominique Canavese  Sud Est06h 32' 16"+  00:37:48 =30,133  km/h

97  Albert Dolhats  Ouest-Sud Ouest06h 32' 16"+  00:37:48 =30,133  km/h

97  Rik Van Steenbergen  Belgium06h 32' 16"+  00:37:48 =30,133  km/h

97  Henri Paret  North Africa06h 32' 16"+  00:37:48 =30,133  km/h

97  Raymond Scardin  Ouest-Sud Ouest06h 32' 16"+  00:37:48 =30,133  km/h

97  Vincent Soler  North Africa06h 32' 16"+  00:37:48 =30,133  km/h

97  Abdel-Kader Zaaf  North Africa06h 32' 16"+  00:37:48 =30,133  km/h

104  Gerard Guercy  North Africa06h 32' 52"+  00:38:24 =30,087  km/h


Withdrawls: 5
 RiderTeamReason
7   Georges Aeschlimann SwitzerlandDid not finish
72   Charles Coste ParisDid not finish
82   Roger Buchonnet Nord Est-CentreDid not finish
92   Alexandre Sowa Nord Est-CentreDid not finish
97   Édouard Fachleitner Sud EstDid not finish
Todays birthdays.

1889 • Adolphe Landon
1890 • Jules Lebreton
1904 • Julien Grujon
1909 • Erich Metze
1926 • Giovanni Rossi
1928 • Serge Blusson
1928 • Alois Vansteenkiste
1931 • André Dupré
1934 • Alfred Rüegg
1962 • Francisco Espinosa
1962 • Paul Kimmage
1963 • Federico Muñoz
1966 • Andrea Tafi
1971 • Emmanuel Magnien
1973 • Paolo Savoldelli
1985 • Mikhail Ignatyev

 

Optimized for Chrome - Edge
and Opera browsers.